Airfield :
LOGIN :

Register | Disclaimer

   EN    FR    IT 

 










Legend :    VFR   Marginal VFR   IFR   Intensive IFR   Very Intensive IFR
Visi :
Ceiling :
>= 8 km
>= 3000ft
5 to 8 km
1000 to 3000 ft
1500m to 5 km
500 to 1000 ft
800 to 1500m
200 to 500 ft
< 800m
< 200 ft
Symbols :   Thunderstorms  Fog  Heavy snow  Heavy precipitations  Wind > 20 kt
SIGMETs :     Misc.  Thunderstorms  Icing  Turbulence  Mountain Waves  Volcanic Ashes







- Airport Elevation : 147 ft
- IATA code : DUS


EDDL - Düsseldorf Int.

CURRENT METAR :
  • 190820Z 25007KT 220V280 9000 -DZ OVC011 17/15 Q1024 NOSIG

EXPIRED METARs :
  • 190750Z 24007KT 9999 -RA OVC012 17/14 Q1023 NOSIG
  • 190720Z 23006KT 9999 BKN012 17/14 Q1023 NOSIG
  • 190650Z 23006KT 9999 BKN012 OVC034 16/14 Q1023 NOSIG
  • 190620Z 22007KT 9999 BKN012 OVC034 16/14 Q1023 NOSIG
  • 190550Z 22006KT 9999 BKN013 OVC034 16/13 Q1023 NOSIG

TAF TAF EDDL
Valid from the 19 at 06:00 until the 20 at 12:00 UTC


190500Z 1906/2012 22004KT 9999 SCT012 BKN030
BECMG 1906/1909 24009KT BKN012
BECMG 1909/1912 BKN020
BECMG 1918/1921 18004KT
BECMG 2006/2009 24009KT
No reported NOTAMs for that airfield.



MET'MAP, your aeronautical weather chart ! - Copyright ORBIFLY December 2007 - Disclaimer

ORBIFLY MET'MAP TEAM :

Programming & Development : Alexandra Zaïnal
Concept & Development : Baudouin d'Aumeries
Co-Development & Prog : Marc-Olivier Méhu
Technical & hardware support : Manuel Goepfert

Contact : metmap@orbifly.com




SOURCES & CREDITS :

   NOAA